»·PEaware :: SWA1489 KSMF-KSAN

SWA1489 :: KSMF-KSAN

FLIGHT INFORMATION

Flight Status: Arrived
Operator:
Southwest Airlines
More flights by this operator :: More flights under this callsign
Pilot: Daniel W. (24238)
Aircraft: BOEING 737-800
(B738)
More flights by this aircraft type
Origin: KSMF Sacramento Intl
United States
Destination: KSAN San Diego Intl-Lindbergh
United States
More flights between these airports :: More routes between these airports
Route: FTHIL2 FRA EHF HUULK COMIX2
File this flight plan on PilotEdge
Remarks: PBN / A1D1O1S2T1 NAV / RNVD1E1A1 RNP10 DAT / 1FANSP2PDC DOF / 200107 REG / N8501V EET / KZLA0033 SEL / BHAF CODE / ABA9E7 PER / C
Altitude:
(Current/Filed)
31,000ft
Speed:
(Current/Filed)
405kts
Departed: 07-Jan-20 01:39 PM
Arrived: 07-Jan-20 03:00 PM
Distance/Time
Traveled:
417nm/1:21
Distance/Time
To Go:
Arrived

Flight Plot

Page will automatically refresh every two minutes.


Map Options




Map Legend


Flown Route
Filed Route
Departure Airport
Arrival Airport
Navaid (VOR, NDB)
Fix

Horizontal Profiles

Position Reports

Time Latitude Longitude Heading Altitude Ground
Speed
07-Jan-20 13:06 38.695480 -121.595299 97 36ft 0kts
07-Jan-20 13:07 38.695480 -121.595299 97 36ft 0kts
07-Jan-20 13:08 38.695480 -121.595299 97 36ft 0kts
07-Jan-20 13:09 38.695480 -121.595299 97 36ft 0kts
07-Jan-20 13:10 38.695480 -121.595299 97 36ft 0kts
07-Jan-20 13:11 38.695480 -121.595299 97 36ft 0kts
07-Jan-20 13:12 38.695480 -121.595299 97 36ft 0kts
07-Jan-20 13:13 38.695480 -121.595299 97 36ft 0kts
07-Jan-20 13:14 38.695480 -121.595299 97 36ft 0kts
07-Jan-20 13:15 38.695480 -121.595299 97 36ft 0kts
07-Jan-20 13:16 38.695480 -121.595299 97 36ft 0kts
07-Jan-20 13:17 38.695480 -121.595299 97 36ft 0kts
07-Jan-20 13:18 38.695480 -121.595299 97 36ft 0kts
07-Jan-20 13:19 38.695480 -121.595299 97 36ft 0kts
07-Jan-20 13:20 38.695480 -121.595299 97 36ft 0kts
07-Jan-20 13:21 38.695480 -121.595299 97 36ft 0kts
07-Jan-20 13:22 38.695480 -121.595299 97 36ft 0kts
07-Jan-20 13:23 38.695480 -121.595299 97 36ft 0kts
07-Jan-20 13:24 38.695480 -121.595299 97 36ft 0kts
07-Jan-20 13:25 38.695480 -121.595299 97 36ft 0kts
07-Jan-20 13:26 38.695480 -121.595299 97 36ft 0kts
07-Jan-20 13:27 38.695480 -121.595299 97 36ft 0kts
07-Jan-20 13:28 38.695480 -121.595299 97 36ft 0kts
07-Jan-20 13:29 38.695480 -121.595299 97 36ft 0kts
07-Jan-20 13:30 38.695509 -121.595521 106 36ft 2kts
07-Jan-20 13:31 38.695766 -121.596005 142 36ft 0kts
07-Jan-20 13:32 38.695765 -121.596005 142 36ft 0kts
07-Jan-20 13:33 38.695749 -121.595991 148 36ft 2kts
07-Jan-20 13:34 38.694645 -121.596836 269 36ft 11kts
07-Jan-20 13:35 38.698053 -121.598641 1 36ft 25kts
07-Jan-20 13:36 38.704936 -121.598520 359 36ft 23kts
07-Jan-20 13:37 38.707199 -121.600436 270 36ft 12kts
07-Jan-20 13:38 38.695133 -121.601325 180 41ft 146kts
07-Jan-20 13:39 38.654411 -121.577974 123 2456ft 203kts
07-Jan-20 13:40 38.619424 -121.509065 123 5139ft 255kts
07-Jan-20 13:41 38.578317 -121.428042 125 8496ft 282kts
07-Jan-20 13:42 38.533115 -121.339812 126 11512ft 325kts
07-Jan-20 13:43 38.478804 -121.233938 127 14042ft 370kts
07-Jan-20 13:44 38.421595 -121.121175 128 17127ft 386kts
07-Jan-20 13:45 38.361775 -121.004450 129 19815ft 402kts
07-Jan-20 13:46 38.298945 -120.882501 129 22195ft 419kts
07-Jan-20 13:47 38.233760 -120.756360 129 24317ft 434kts
07-Jan-20 13:48 38.166260 -120.625880 129 26112ft 449kts
07-Jan-20 13:49 38.096318 -120.492150 129 27681ft 463kts
07-Jan-20 13:50 38.022871 -120.355319 131 29133ft 473kts
07-Jan-20 13:51 37.942700 -120.224093 143 30933ft 462kts
07-Jan-20 13:52 37.837223 -120.135547 156 31231ft 450kts
07-Jan-20 13:53 37.729114 -120.055602 156 31246ft 450kts
07-Jan-20 13:54 37.621026 -119.975387 156 31255ft 450kts
07-Jan-20 13:55 37.513007 -119.895254 156 31271ft 451kts
07-Jan-20 13:56 37.404855 -119.815513 156 31279ft 451kts
07-Jan-20 13:57 37.296945 -119.735982 156 31291ft 450kts
07-Jan-20 13:58 37.188254 -119.656559 156 31287ft 451kts
07-Jan-20 13:59 37.077000 -119.587950 169 31286ft 440kts
07-Jan-20 14:00 36.958714 -119.549786 172 31288ft 438kts
07-Jan-20 14:01 36.840535 -119.513027 172 31288ft 439kts
07-Jan-20 14:02 36.721834 -119.476005 172 31285ft 439kts
07-Jan-20 14:03 36.603075 -119.439046 172 31289ft 439kts
07-Jan-20 14:04 36.484520 -119.402340 172 31287ft 440kts
07-Jan-20 14:05 36.365738 -119.365691 172 31280ft 440kts
07-Jan-20 14:06 36.246853 -119.329124 172 31279ft 440kts
07-Jan-20 14:07 36.128273 -119.292765 172 31279ft 440kts
07-Jan-20 14:08 36.009337 -119.256409 172 31279ft 440kts
07-Jan-20 14:09 35.890425 -119.220171 171 31266ft 441kts
07-Jan-20 14:10 35.773129 -119.184469 171 31252ft 441kts
07-Jan-20 14:11 35.654363 -119.148476 171 31254ft 441kts
07-Jan-20 14:12 35.535013 -119.112491 171 31264ft 441kts
07-Jan-20 14:13 35.418855 -119.061397 160 31249ft 448kts
07-Jan-20 14:14 35.305492 -118.997676 161 31231ft 448kts
07-Jan-20 14:15 35.191964 -118.934609 161 31235ft 448kts
07-Jan-20 14:16 35.078667 -118.871538 161 31249ft 448kts
07-Jan-20 14:17 34.965149 -118.808751 161 31262ft 448kts
07-Jan-20 14:18 34.851500 -118.745977 161 31272ft 447kts
07-Jan-20 14:19 34.738186 -118.683743 161 31279ft 447kts
07-Jan-20 14:20 34.624919 -118.621807 161 31268ft 447kts
07-Jan-20 14:21 34.514619 -118.550101 153 31243ft 452kts
07-Jan-20 14:22 34.406612 -118.472219 154 31211ft 452kts
07-Jan-20 14:23 34.298145 -118.395200 154 31179ft 452kts
07-Jan-20 14:24 34.194118 -118.321163 154 31161ft 452kts
07-Jan-20 14:25 34.086093 -118.244625 154 31137ft 452kts
07-Jan-20 14:26 33.977383 -118.168119 154 31126ft 452kts
07-Jan-20 14:27 33.873814 -118.095523 154 29862ft 444kts
07-Jan-20 14:28 33.767854 -118.023985 156 27691ft 429kts
07-Jan-20 14:29 33.664506 -117.955860 155 25555ft 419kts
07-Jan-20 14:30 33.563609 -117.889430 155 23439ft 407kts
07-Jan-20 14:31 33.466243 -117.823472 154 21365ft 396kts
07-Jan-20 14:32 33.380644 -117.741979 140 19321ft 389kts
07-Jan-20 14:33 33.301375 -117.656966 140 17224ft 379kts
07-Jan-20 14:34 33.223837 -117.574293 141 15228ft 368kts
07-Jan-20 14:35 33.148037 -117.494969 140 13319ft 356kts
07-Jan-20 14:36 33.069344 -117.427028 146 11418ft 345kts
07-Jan-20 14:37 32.992737 -117.362852 145 10159ft 318kts
07-Jan-20 14:38 32.925609 -117.306672 145 9793ft 274kts
07-Jan-20 14:39 32.864557 -117.255831 145 8693ft 265kts
07-Jan-20 14:40 32.809924 -117.199389 116 7479ft 262kts
07-Jan-20 14:41 32.790434 -117.116591 104 6222ft 260kts
07-Jan-20 14:42 32.772764 -117.038790 106 5844ft 229kts
07-Jan-20 14:43 32.751445 -116.969378 127 4931ft 220kts
07-Jan-20 14:44 32.697785 -116.964828 222 3884ft 218kts
07-Jan-20 14:45 32.692799 -117.029198 291 2919ft 200kts
07-Jan-20 14:46 32.708692 -117.087069 284 1906ft 167kts
07-Jan-20 14:47 32.720643 -117.136811 282 969ft 151kts
07-Jan-20 14:48 32.731927 -117.182979 281 66ft 132kts
07-Jan-20 14:50 32.743486 -117.228312 289 2097ft 180kts
07-Jan-20 14:51 32.760087 -117.298809 286 3408ft 251kts
07-Jan-20 14:52 32.810823 -117.334610 19 3995ft 243kts
07-Jan-20 14:53 32.828640 -117.267118 105 4006ft 245kts
07-Jan-20 14:54 32.807524 -117.190353 107 3729ft 240kts
07-Jan-20 14:55 32.787610 -117.118946 107 3062ft 218kts
07-Jan-20 14:56 32.759420 -117.059638 164 2071ft 206kts
07-Jan-20 14:57 32.716124 -117.084331 249 1880ft 158kts
07-Jan-20 14:58 32.719935 -117.133561 283 934ft 144kts
07-Jan-20 14:59 32.731199 -117.179931 282 68ft 145kts
07-Jan-20 15:00 32.734714 -117.198476 142 23ft 7kts
07-Jan-20 15:01 32.733604 -117.195887 199 23ft 7kts
07-Jan-20 15:02 32.733241 -117.196027 197 23ft 0kts
07-Jan-20 15:03 32.733241 -117.196027 197 23ft 0kts
07-Jan-20 15:04 32.733241 -117.196027 197 23ft 0kts
07-Jan-20 15:05 32.733241 -117.196027 197 23ft 0kts
07-Jan-20 15:06 32.733241 -117.196027 197 23ft 0kts
07-Jan-20 15:07 32.733241 -117.196027 197 23ft 0kts
07-Jan-20 15:08 32.733241 -117.196027 197 23ft 0kts
07-Jan-20 15:09 32.733241 -117.196027 197 23ft 0kts
07-Jan-20 15:09 32.733241 -117.196027 197 23ft 0kts
07-Jan-20 15:11 32.733241 -117.196027 197 23ft 0kts
07-Jan-20 15:12 32.733241 -117.196027 197 23ft 0kts
07-Jan-20 15:12 32.733241 -117.196027 197 23ft 0kts
07-Jan-20 15:14 32.733241 -117.196027 197 23ft 0kts

Navigation Log

Ident Type
Flight plan parsing failed, navigation log unavailable